createdAt,value
2023-01-30T00:01:25.995Z,8.15
2023-01-30T00:03:53.098Z,6.68
2023-01-30T00:06:20.366Z,8.55
2023-01-30T00:08:47.425Z,8.83
2023-01-30T00:11:15.697Z,8.60
2023-01-30T00:13:42.940Z,7.95
2023-01-30T00:16:10.057Z,8.02
2023-01-30T00:18:37.565Z,9.07
2023-01-30T00:21:06.534Z,8.53
2023-01-30T00:23:34.667Z,9.20
2023-01-30T00:26:01.589Z,8.82
2023-01-30T00:28:28.392Z,9.15
2023-01-30T00:30:56.277Z,10.05
2023-01-30T00:33:25.934Z,9.67
2023-01-30T00:35:54.208Z,10.07
2023-01-30T00:38:21.436Z,9.88
2023-01-30T00:40:48.762Z,9.30
2023-01-30T00:43:36.133Z,9.40
2023-01-30T00:46:24.364Z,9.20
2023-01-30T00:48:51.161Z,8.70
2023-01-30T00:51:17.933Z,8.57
2023-01-30T00:53:44.652Z,8.82
2023-01-30T00:56:11.407Z,8.35
2023-01-30T00:58:38.115Z,8.77
2023-01-30T01:01:04.884Z,7.80
2023-01-30T01:03:31.763Z,8.15
2023-01-30T01:05:58.579Z,7.57
2023-01-30T01:08:25.329Z,8.63
2023-01-30T01:10:52.006Z,8.10
2023-01-30T01:13:18.741Z,8.73
2023-01-30T01:15:45.529Z,8.32
2023-01-30T01:18:12.249Z,7.53
2023-01-30T01:20:38.997Z,8.88
2023-01-30T01:23:05.689Z,8.13
2023-01-30T01:25:32.527Z,8.73
2023-01-30T01:27:59.321Z,8.50
2023-01-30T01:30:26.058Z,8.13
2023-01-30T01:32:52.848Z,9.10
2023-01-30T01:35:20.197Z,8.03
2023-01-30T01:37:47.206Z,9.05
2023-01-30T01:40:42.664Z,8.05
2023-01-30T01:43:16.833Z,8.43
2023-01-30T01:45:43.968Z,8.88
2023-01-30T01:48:16.250Z,8.47
2023-01-30T01:51:14.341Z,9.20
2023-01-30T01:53:45.712Z,8.70
2023-01-30T01:56:14.988Z,8.38
2023-01-30T01:58:47.995Z,9.02
2023-01-30T02:01:15.119Z,8.63
2023-01-30T02:03:45.901Z,8.25
2023-01-30T02:06:15.233Z,8.98
2023-01-30T02:08:48.647Z,9.07
2023-01-30T02:11:18.508Z,9.13
2023-01-30T02:13:46.371Z,9.47
2023-01-30T02:16:13.388Z,9.55
2023-01-30T02:18:41.723Z,8.88
2023-01-30T02:21:26.811Z,8.30
2023-01-30T02:24:16.159Z,9.25
2023-01-30T02:27:08.216Z,9.83
2023-01-30T02:30:02.338Z,8.65
2023-01-30T02:32:43.977Z,9.80
2023-01-30T02:35:28.531Z,7.50
2023-01-30T02:38:10.022Z,8.82
2023-01-30T02:40:50.217Z,8.47
2023-01-30T02:43:43.574Z,8.25
2023-01-30T02:46:21.067Z,8.27
2023-01-30T02:49:33.875Z,8.88
2023-01-30T02:52:01.925Z,8.65
2023-01-30T02:54:28.913Z,7.87
2023-01-30T02:56:58.622Z,8.18
2023-01-30T02:59:28.395Z,7.97
2023-01-30T03:02:12.799Z,9.23
2023-01-30T03:05:11.950Z,8.43
2023-01-30T03:07:55.452Z,8.23
2023-01-30T03:10:30.207Z,8.85
2023-01-30T03:13:07.014Z,7.90
2023-01-30T03:15:34.506Z,7.97
2023-01-30T03:18:01.765Z,7.50
2023-01-30T03:20:28.498Z,9.00
2023-01-30T03:22:55.443Z,7.63
2023-01-30T03:25:24.126Z,8.20
2023-01-30T03:27:51.677Z,8.18
2023-01-30T03:30:18.770Z,7.85
2023-01-30T03:32:45.584Z,8.30
2023-01-30T03:35:12.756Z,7.80
2023-01-30T03:37:39.463Z,7.43
2023-01-30T03:40:06.928Z,8.65
2023-01-30T03:42:33.668Z,7.68
2023-01-30T03:45:00.365Z,8.07
2023-01-30T03:47:27.259Z,8.48
2023-01-30T03:49:54.175Z,7.93
2023-01-30T03:52:20.881Z,9.15
2023-01-30T03:54:47.636Z,8.40
2023-01-30T03:57:14.403Z,7.53
2023-01-30T03:59:41.188Z,7.45
2023-01-30T04:02:08.635Z,5.90
2023-01-30T04:04:35.891Z,7.13
2023-01-30T04:07:02.753Z,7.53
2023-01-30T04:09:29.527Z,8.43
2023-01-30T04:11:56.265Z,8.55
2023-01-30T04:14:22.942Z,7.57
2023-01-30T04:16:49.682Z,8.38
2023-01-30T04:19:16.541Z,8.43
2023-01-30T04:21:43.316Z,8.73
2023-01-30T04:24:10.121Z,7.75
2023-01-30T04:26:37.023Z,8.68
2023-01-30T04:29:03.836Z,7.65
2023-01-30T04:31:30.690Z,8.20
2023-01-30T04:33:57.600Z,8.23
2023-01-30T04:36:24.354Z,8.10
2023-01-30T04:38:51.141Z,8.57
2023-01-30T04:41:17.829Z,8.52
2023-01-30T04:43:44.570Z,8.23
2023-01-30T04:46:11.354Z,9.27
2023-01-30T04:48:39.417Z,9.07
2023-01-30T04:51:06.115Z,7.78
2023-01-30T04:53:32.859Z,8.82
2023-01-30T04:55:59.596Z,8.30
2023-01-30T04:58:26.361Z,7.97
2023-01-30T05:00:53.266Z,8.40
2023-01-30T05:03:20.028Z,8.32
2023-01-30T05:05:47.729Z,8.05
2023-01-30T05:08:15.617Z,7.63
2023-01-30T05:10:42.541Z,8.90
2023-01-30T05:13:09.289Z,9.07
2023-01-30T05:15:35.990Z,8.45
2023-01-30T05:18:02.710Z,8.88
2023-01-30T05:20:29.496Z,8.88
2023-01-30T05:22:56.174Z,8.53
2023-01-30T05:25:22.951Z,9.25
2023-01-30T05:27:49.840Z,9.02
2023-01-30T05:30:16.887Z,9.70
2023-01-30T05:32:43.672Z,9.32
2023-01-30T05:35:10.539Z,9.23
2023-01-30T05:37:37.939Z,10.38
2023-01-30T05:40:05.941Z,9.15
2023-01-30T05:42:32.815Z,9.73
2023-01-30T05:44:59.520Z,8.95
2023-01-30T05:47:26.261Z,8.83
2023-01-30T05:49:53.004Z,8.15
2023-01-30T05:52:19.769Z,9.88
2023-01-30T05:54:46.572Z,8.48
2023-01-30T05:57:13.296Z,9.55
2023-01-30T05:59:40.073Z,8.90
2023-01-30T06:02:06.812Z,9.90
2023-01-30T06:04:33.704Z,8.00
2023-01-30T06:07:00.482Z,10.27
2023-01-30T06:09:27.221Z,8.45
2023-01-30T06:11:55.617Z,8.80
2023-01-30T06:14:22.331Z,8.65
2023-01-30T06:16:49.206Z,8.85
2023-01-30T06:19:16.056Z,8.77
2023-01-30T06:21:42.771Z,9.27
2023-01-30T06:24:09.457Z,8.70
2023-01-30T06:26:36.292Z,9.27
2023-01-30T06:29:03.110Z,9.55
2023-01-30T06:31:29.863Z,10.20
2023-01-30T06:33:56.752Z,9.38
2023-01-30T06:36:23.520Z,10.20
2023-01-30T06:38:50.315Z,9.18
2023-01-30T06:41:17.065Z,9.15
2023-01-30T06:43:43.947Z,8.10
2023-01-30T06:46:10.720Z,10.13
2023-01-30T06:48:37.514Z,9.03
2023-01-30T06:51:04.439Z,8.82
2023-01-30T06:53:31.256Z,9.45
2023-01-30T06:56:01.792Z,9.68
2023-01-30T06:58:28.733Z,8.52
2023-01-30T07:00:55.624Z,9.67
2023-01-30T07:03:22.527Z,9.30
2023-01-30T07:05:49.348Z,9.13
2023-01-30T07:08:16.696Z,9.43
2023-01-30T07:10:44.309Z,9.65
2023-01-30T07:13:11.471Z,10.13
2023-01-30T07:15:38.414Z,10.30
2023-01-30T07:18:05.219Z,9.38
2023-01-30T07:20:32.183Z,9.88
2023-01-30T07:23:00.724Z,8.57
2023-01-30T07:25:28.656Z,9.83
2023-01-30T07:28:00.145Z,9.73
2023-01-30T07:30:30.620Z,9.82
2023-01-30T07:32:58.825Z,9.43
2023-01-30T07:35:27.271Z,10.68
2023-01-30T07:37:54.335Z,9.50
2023-01-30T07:40:21.858Z,9.65
2023-01-30T07:43:03.227Z,9.63
2023-01-30T07:45:50.605Z,10.48
2023-01-30T07:48:19.095Z,10.27
2023-01-30T07:50:49.193Z,11.07
2023-01-30T07:53:19.980Z,9.68
2023-01-30T07:55:48.357Z,10.00
2023-01-30T07:58:16.322Z,10.13
2023-01-30T08:00:43.542Z,10.00
2023-01-30T08:03:17.452Z,10.23
2023-01-30T08:05:51.026Z,8.98
2023-01-30T08:08:18.012Z,9.52
2023-01-30T08:10:44.926Z,9.90
2023-01-30T08:13:11.736Z,9.30
2023-01-30T08:15:38.472Z,9.10
2023-01-30T08:18:07.353Z,8.80
2023-01-30T08:20:34.249Z,10.23
2023-01-30T08:23:02.318Z,9.65
2023-01-30T08:25:29.841Z,10.10
2023-01-30T08:27:59.057Z,10.70
2023-01-30T08:30:25.924Z,11.18
2023-01-30T08:32:52.722Z,9.95
2023-01-30T08:35:19.788Z,11.27
2023-01-30T08:37:46.485Z,10.40
2023-01-30T08:40:13.886Z,9.97
2023-01-30T08:42:45.308Z,10.98
2023-01-30T08:45:12.356Z,10.43
2023-01-30T08:47:39.302Z,11.60
2023-01-30T08:50:06.356Z,10.05
2023-01-30T08:52:33.774Z,10.50
2023-01-30T08:55:00.524Z,11.38
2023-01-30T08:57:27.336Z,10.48
2023-01-30T08:59:54.131Z,10.68
2023-01-30T09:02:21.617Z,11.52
2023-01-30T09:04:48.356Z,11.17
2023-01-30T09:07:15.183Z,10.85
2023-01-30T09:09:42.000Z,10.35
2023-01-30T09:12:08.781Z,10.45
2023-01-30T09:14:35.535Z,9.50
2023-01-30T09:17:03.663Z,10.07
2023-01-30T09:19:30.524Z,9.97
2023-01-30T09:21:57.274Z,10.13
2023-01-30T09:24:26.585Z,9.55
2023-01-30T09:26:54.304Z,9.00
2023-01-30T09:29:21.158Z,9.38
2023-01-30T09:31:47.920Z,9.03
2023-01-30T09:34:14.916Z,8.85
2023-01-30T09:36:41.891Z,7.75
2023-01-30T09:39:09.116Z,9.60
2023-01-30T09:41:38.930Z,10.05
2023-01-30T09:44:38.267Z,11.03
2023-01-30T09:47:11.987Z,9.77
2023-01-30T09:50:03.533Z,10.18
2023-01-30T09:53:11.961Z,9.35
2023-01-30T09:55:41.464Z,8.77
2023-01-30T09:58:20.040Z,8.13
2023-01-30T10:00:48.546Z,8.05
2023-01-30T10:03:18.596Z,8.50
2023-01-30T10:05:49.498Z,7.88
2023-01-30T10:08:31.340Z,10.45
2023-01-30T10:11:40.818Z,9.47
2023-01-30T10:14:22.311Z,9.30
2023-01-30T10:17:01.671Z,9.32
2023-01-30T10:20:15.732Z,9.48
2023-01-30T10:23:02.282Z,9.27
2023-01-30T10:25:51.985Z,9.93
2023-01-30T10:28:24.814Z,8.68
2023-01-30T10:30:53.935Z,10.48
2023-01-30T10:33:33.773Z,10.07
2023-01-30T10:36:10.751Z,8.65
2023-01-30T10:38:49.260Z,8.17
2023-01-30T10:41:23.997Z,10.10
2023-01-30T10:44:04.307Z,8.75
2023-01-30T10:47:02.011Z,8.75
2023-01-30T10:49:40.351Z,7.65
2023-01-30T10:52:27.155Z,8.70
2023-01-30T10:55:00.869Z,10.57
2023-01-30T10:58:05.268Z,9.50
2023-01-30T11:00:48.138Z,8.43
2023-01-30T11:03:22.788Z,9.20
2023-01-30T11:06:00.131Z,8.83
2023-01-30T11:08:33.393Z,8.82
2023-01-30T11:11:01.072Z,9.00
2023-01-30T11:13:32.625Z,8.93
2023-01-30T11:16:07.124Z,9.25
2023-01-30T11:21:43.558Z,8.20
2023-01-30T11:24:23.217Z,8.65
2023-01-30T11:26:50.434Z,7.82
2023-01-30T11:29:30.439Z,8.27
2023-01-30T11:32:22.021Z,7.47
2023-01-30T11:35:04.359Z,9.13
2023-01-30T11:37:33.545Z,9.45
2023-01-30T11:40:00.486Z,8.88
2023-01-30T11:42:41.783Z,8.75
2023-01-30T11:45:24.467Z,8.20
2023-01-30T11:48:03.800Z,8.60
2023-01-30T11:50:59.096Z,8.18
2023-01-30T11:53:39.908Z,7.95
2023-01-30T11:56:26.166Z,8.48
2023-01-30T11:59:12.431Z,7.93
2023-01-30T12:01:39.340Z,9.00
2023-01-30T12:04:09.098Z,8.65
2023-01-30T12:06:39.008Z,9.38
2023-01-30T12:09:29.680Z,10.25
2023-01-30T12:11:56.518Z,9.40
2023-01-30T12:14:45.007Z,9.63
2023-01-30T12:17:22.717Z,9.15
2023-01-30T12:20:01.018Z,8.07
2023-01-30T12:22:37.860Z,8.30
2023-01-30T12:25:41.419Z,7.17
2023-01-30T12:28:59.189Z,7.63
2023-01-30T12:31:29.137Z,7.82
2023-01-30T12:33:57.137Z,7.13
2023-01-30T12:36:38.545Z,8.13
2023-01-30T12:39:05.366Z,7.87
2023-01-30T12:42:25.362Z,7.93
2023-01-30T12:45:29.497Z,7.63
2023-01-30T12:48:22.194Z,8.70
2023-01-30T12:51:00.786Z,8.15
2023-01-30T12:53:47.730Z,7.97
2023-01-30T12:56:37.095Z,8.25
2023-01-30T12:59:10.719Z,7.95
2023-01-30T13:02:15.714Z,9.60
2023-01-30T13:05:06.924Z,11.00
2023-01-30T13:07:40.771Z,9.90
2023-01-30T13:10:19.389Z,7.53
2023-01-30T13:12:52.355Z,8.27
2023-01-30T13:15:32.619Z,6.55
2023-01-30T13:18:02.373Z,7.15
2023-01-30T13:20:40.958Z,7.20
2023-01-30T13:23:18.585Z,7.35
2023-01-30T13:25:59.305Z,7.38
2023-01-30T13:28:31.986Z,8.15
2023-01-30T13:30:58.939Z,7.65
2023-01-30T13:33:31.018Z,7.70
2023-01-30T13:36:08.942Z,7.57
2023-01-30T13:38:40.724Z,9.35
2023-01-30T13:41:10.299Z,8.18
2023-01-30T13:43:39.446Z,8.50
2023-01-30T13:46:11.243Z,9.60
2023-01-30T13:49:30.638Z,12.88
2023-01-30T13:52:10.256Z,7.97
2023-01-30T13:55:05.556Z,8.15
2023-01-30T13:57:50.932Z,7.18
2023-01-30T14:00:23.634Z,7.03
2023-01-30T14:03:08.539Z,7.57
2023-01-30T14:05:59.053Z,7.30
2023-01-30T14:08:28.263Z,6.63
2023-01-30T14:10:56.810Z,7.20
2023-01-30T14:13:25.031Z,6.90
2023-01-30T14:16:02.711Z,7.20
2023-01-30T14:18:38.590Z,7.25
2023-01-30T14:21:23.793Z,7.53
2023-01-30T14:24:04.390Z,8.50
2023-01-30T14:26:52.378Z,7.63
2023-01-30T14:29:41.951Z,8.55
